Firth, NE (68358)

3:44 AM CST on February 14, 2016 (GMT -0600)
KNEROCA2 | | Change Station
CLOSE
Current Station
Personal Weather Station
Location: Roca, NE
Elevation: 1279 ft
Nearby Weather Stations

Elev 1279 ft 40.64 °N, 96.69 °W | Updated 5 seconds ago

Overcast
Overcast
18.8 °F
Feels Like 13 °F
N
4.0
Wind Variable Wind from ESE
Gusts 11.0 mph

Today
High -- | Low -- °F
--% Chance of Precip.
Yesterday
High -- | Low -- °F
Precip. -- in
Pressure 30.00 in
Visibility 10.0 miles
Clouds Mostly Cloudy 4800 ft
Overcast 8500 ft
Windchill 13 °F
Dew Point 10 °F
Humidity 69%
Rainfall 0.00 in
Snow Depth Not available.
7:21 AM 5:59 PM
Waxing Crescent, 40% visible
METAR KBIE 140935Z AUTO 17011KT 10SM BKN048 OVC085 M07/M14 A3000 RMK AO2 T10661141
Pressure 30.00 in
Visibility 10.0 miles
Clouds Mostly Cloudy 4800 ft
Overcast 8500 ft
Windchill 13 °F
Dew Point 10 °F
Humidity 69%
Rainfall 0.00 in
Snow Depth Not available.
7:21 AM 5:59 PM
Waxing Crescent, 40% visible
METAR KBIE 140935Z AUTO 17011KT 10SM BKN048 OVC085 M07/M14 A3000 RMK AO2 T10661141

10-Day Weather Forecast

Almanac

Astronomy

Feb. 14, 2016 Rise Set
Actual Time
Civil Twilight
Nautical Twilight
Astronomical Twilight
Moon
Length of Visible Light
Length of Day
Tomorrow will be .
, % of the Moon is Illuminated

Today's Extremes

State Highs State Lows

Community

WunderPhotos

Upload Photos

1,892,761 photos uploaded!

WunderBlog® & News

Nearby

Air Quality

  Air Quality AQ Index Pollutant
Not available.

Snow Depth

Station Depth Elevation

Earthquake Activity

City Distance Mag. Time & Date
Minimum magnitude displayed is 2.5.

Coastal Water Temperatures

Place Temperature

Stations

Nearby Weather Stations

Station Location Temp. Windchill Dew Point Humidity Wind Precip. Elev Updated Type
                   

Watches & Warnings

There are currently no watches in effect.